createdAt,value
2019-05-23T00:01:20.670Z,8.13
2019-05-23T00:04:02.530Z,8.33
2019-05-23T00:06:33.710Z,7.50
2019-05-23T00:09:06.637Z,7.47
2019-05-23T00:11:40.719Z,7.03
2019-05-23T00:14:30.970Z,6.93
2019-05-23T00:17:02.359Z,8.10
2019-05-23T00:19:33.848Z,7.83
2019-05-23T00:22:07.553Z,8.10
2019-05-23T00:24:39.741Z,7.00
2019-05-23T00:27:10.465Z,7.83
2019-05-23T00:29:43.316Z,8.03
2019-05-23T00:32:26.541Z,7.20
2019-05-23T00:34:59.292Z,8.20
2019-05-23T00:37:33.031Z,8.23
2019-05-23T00:40:05.965Z,8.00
2019-05-23T00:42:36.480Z,8.17
2019-05-23T00:45:10.149Z,7.67
2019-05-23T00:47:41.599Z,7.80
2019-05-23T00:50:14.686Z,7.93
2019-05-23T00:52:45.439Z,8.10
2019-05-23T00:55:20.366Z,7.30
2019-05-23T00:57:51.679Z,9.10
2019-05-23T01:00:25.065Z,7.20
2019-05-23T01:02:56.942Z,6.83
2019-05-23T01:05:29.568Z,7.03
2019-05-23T01:08:01.643Z,7.60
2019-05-23T01:10:33.452Z,7.93
2019-05-23T01:13:04.125Z,7.30
2019-05-23T01:15:35.039Z,8.83
2019-05-23T01:18:06.595Z,9.60
2019-05-23T01:20:49.687Z,9.23
2019-05-23T01:23:20.248Z,8.93
2019-05-23T01:25:52.864Z,9.20
2019-05-23T01:28:24.711Z,10.47
2019-05-23T01:30:59.494Z,10.83
2019-05-23T01:33:31.157Z,10.77
2019-05-23T01:36:02.915Z,11.10
2019-05-23T01:38:34.823Z,9.97
2019-05-23T01:41:06.848Z,10.03
2019-05-23T01:43:38.020Z,12.27
2019-05-23T01:46:09.896Z,12.80
2019-05-23T01:48:43.044Z,11.63
2019-05-23T01:51:15.401Z,10.83
2019-05-23T01:53:47.176Z,10.30
2019-05-23T01:56:18.307Z,9.27
2019-05-23T01:58:50.933Z,10.17
2019-05-23T02:01:24.118Z,10.87
2019-05-23T02:03:54.563Z,10.47
2019-05-23T02:06:25.225Z,10.77
2019-05-23T02:08:55.898Z,11.37
2019-05-23T02:11:27.526Z,11.27
2019-05-23T02:13:58.476Z,11.70
2019-05-23T02:16:29.473Z,11.23
2019-05-23T02:19:00.769Z,12.47
2019-05-23T02:21:31.701Z,12.90
2019-05-23T02:24:02.270Z,13.23
2019-05-23T02:26:35.361Z,13.23
2019-05-23T02:29:07.917Z,15.10
2019-05-23T02:31:38.620Z,11.23
2019-05-23T02:34:13.938Z,11.10
2019-05-23T02:36:46.308Z,10.30
2019-05-23T02:39:49.871Z,9.80
2019-05-23T02:42:32.376Z,11.20
2019-05-23T02:45:04.534Z,12.37
2019-05-23T02:47:41.952Z,11.53
2019-05-23T02:50:26.573Z,10.67
2019-05-23T02:52:58.364Z,10.90
2019-05-23T02:55:39.047Z,11.43
2019-05-23T02:58:27.486Z,11.57
2019-05-23T03:01:37.281Z,11.30
2019-05-23T03:04:30.218Z,10.57
2019-05-23T03:07:04.005Z,10.83
2019-05-23T03:09:36.958Z,11.47
2019-05-23T03:12:13.218Z,12.20
2019-05-23T03:14:45.724Z,11.10
2019-05-23T03:17:23.594Z,9.37
2019-05-23T03:19:58.068Z,9.17
2019-05-23T03:22:40.714Z,8.90
2019-05-23T03:26:03.911Z,9.93
2019-05-23T03:28:42.583Z,11.53
2019-05-23T03:31:31.400Z,11.10
2019-05-23T03:34:00.363Z,10.63
2019-05-23T03:36:31.848Z,10.83
2019-05-23T03:39:04.095Z,10.57
2019-05-23T03:41:34.839Z,9.57
2019-05-23T03:44:07.442Z,9.00
2019-05-23T03:46:41.831Z,9.27
2019-05-23T03:49:16.954Z,10.23
2019-05-23T03:51:48.087Z,9.33
2019-05-23T03:54:19.199Z,9.17
2019-05-23T03:56:50.682Z,9.10
2019-05-23T03:59:23.440Z,10.07
2019-05-23T04:01:55.860Z,9.53
2019-05-23T04:04:27.624Z,9.60
2019-05-23T04:06:58.892Z,10.30
2019-05-23T04:09:29.729Z,9.80
2019-05-23T04:12:00.696Z,10.37
2019-05-23T04:14:31.393Z,10.43
2019-05-23T04:17:06.437Z,10.60
2019-05-23T04:19:36.991Z,10.80
2019-05-23T04:22:08.285Z,11.70
2019-05-23T04:24:38.855Z,14.63
2019-05-23T04:27:09.519Z,14.60
2019-05-23T04:29:40.281Z,15.20
2019-05-23T04:32:11.337Z,15.57
2019-05-23T04:34:42.105Z,16.30
2019-05-23T04:37:12.641Z,15.50
2019-05-23T04:39:43.298Z,14.77
2019-05-23T04:42:13.802Z,35.77
2019-05-23T04:44:44.878Z,28.03
2019-05-23T04:47:15.489Z,30.20
2019-05-23T04:49:46.378Z,25.67
2019-05-23T04:52:17.454Z,24.03
2019-05-23T04:54:48.509Z,23.47
2019-05-23T04:57:20.022Z,24.47
2019-05-23T04:59:50.924Z,24.23
2019-05-23T05:02:26.542Z,24.50
2019-05-23T05:04:54.520Z,26.80
2019-05-23T05:07:25.196Z,31.73
2019-05-23T05:09:56.336Z,35.23
2019-05-23T05:12:27.130Z,34.13
2019-05-23T05:14:57.768Z,35.07
2019-05-23T05:17:29.260Z,40.67
2019-05-23T05:20:02.453Z,42.63
2019-05-23T05:22:32.994Z,45.53
2019-05-23T05:25:04.728Z,48.67
2019-05-23T05:27:35.250Z,50.43
2019-05-23T05:30:06.938Z,49.67
2019-05-23T05:32:44.570Z,51.30
2019-05-23T05:35:10.518Z,52.23
2019-05-23T05:37:41.087Z,51.43
2019-05-23T05:40:14.488Z,52.07
2019-05-23T05:42:46.076Z,52.30
2019-05-23T05:45:20.196Z,49.67
2019-05-23T05:47:50.708Z,49.70
2019-05-23T05:50:21.666Z,45.13
2019-05-23T05:52:52.583Z,42.77
2019-05-23T05:55:23.155Z,42.60
2019-05-23T05:57:53.636Z,42.43
2019-05-23T06:00:41.915Z,37.63
2019-05-23T06:03:12.465Z,34.93
2019-05-23T06:06:04.769Z,32.17
2019-05-23T06:08:37.753Z,30.80
2019-05-23T06:11:08.848Z,28.50
2019-05-23T06:13:42.120Z,30.40
2019-05-23T06:16:12.698Z,28.60
2019-05-23T06:18:43.198Z,27.73
2019-05-23T06:21:15.479Z,25.50
2019-05-23T06:23:46.668Z,24.77
2019-05-23T06:26:17.434Z,25.13
2019-05-23T06:28:47.999Z,24.43
2019-05-23T06:31:21.586Z,23.37
2019-05-23T06:33:53.622Z,21.03
2019-05-23T06:36:27.307Z,19.60
2019-05-23T06:38:57.943Z,20.50
2019-05-23T06:41:29.015Z,19.93
2019-05-23T06:43:59.739Z,19.50
2019-05-23T06:46:30.414Z,17.33
2019-05-23T06:49:00.947Z,18.57
2019-05-23T06:51:31.821Z,17.47
2019-05-23T06:54:02.444Z,16.40
2019-05-23T06:56:32.976Z,16.13
2019-05-23T06:59:04.575Z,16.27
2019-05-23T07:01:35.226Z,14.80
2019-05-23T07:04:07.728Z,14.97
2019-05-23T07:06:38.396Z,14.87
2019-05-23T07:09:15.887Z,13.50
2019-05-23T07:11:46.588Z,14.10
2019-05-23T07:14:17.278Z,12.60
2019-05-23T07:16:50.252Z,13.17
2019-05-23T07:19:21.452Z,11.97
2019-05-23T07:21:51.956Z,10.93
2019-05-23T07:24:23.044Z,11.13
2019-05-23T07:26:53.620Z,10.20
2019-05-23T07:29:24.320Z,9.47
2019-05-23T07:31:54.978Z,9.23
2019-05-23T07:34:26.650Z,9.13
2019-05-23T07:36:58.669Z,10.23
2019-05-23T07:39:29.195Z,10.37
2019-05-23T07:41:59.701Z,10.37
2019-05-23T07:44:45.951Z,9.63
2019-05-23T07:47:06.325Z,9.63
2019-05-23T07:49:36.909Z,8.97
2019-05-23T07:52:07.956Z,8.90
2019-05-23T07:54:47.886Z,8.47
2019-05-23T07:57:18.820Z,8.13
2019-05-23T07:59:50.081Z,6.40
2019-05-23T08:02:28.511Z,6.10
2019-05-23T08:04:59.368Z,6.33
2019-05-23T08:07:32.617Z,6.73
2019-05-23T08:10:03.041Z,6.33
2019-05-23T08:12:33.620Z,6.43
2019-05-23T08:15:05.424Z,6.70
2019-05-23T08:17:38.071Z,6.47
2019-05-23T08:20:10.956Z,5.63
2019-05-23T08:22:41.533Z,4.87
2019-05-23T08:25:12.411Z,4.47
2019-05-23T08:27:43.692Z,4.90
2019-05-23T08:30:15.520Z,4.97
2019-05-23T08:32:46.051Z,6.03
2019-05-23T08:35:18.150Z,5.37
2019-05-23T08:37:49.850Z,4.80
2019-05-23T08:40:22.485Z,5.10
2019-05-23T08:42:53.635Z,5.47
2019-05-23T08:45:25.222Z,4.87
2019-05-23T08:47:55.878Z,4.40
2019-05-23T08:50:26.382Z,5.80
2019-05-23T08:52:59.502Z,5.37
2019-05-23T08:55:31.673Z,5.27
2019-05-23T08:58:02.756Z,5.53
2019-05-23T09:00:35.529Z,4.20
2019-05-23T09:03:07.540Z,4.80
2019-05-23T09:05:41.015Z,4.50
2019-05-23T09:08:16.373Z,5.27
2019-05-23T09:10:44.729Z,5.50
2019-05-23T09:13:16.152Z,5.23
2019-05-23T09:15:46.824Z,4.80
2019-05-23T09:18:17.324Z,5.13
2019-05-23T09:20:49.633Z,4.70
2019-05-23T09:23:20.312Z,5.60
2019-05-23T09:25:52.074Z,5.47
2019-05-23T09:28:23.496Z,5.17
2019-05-23T09:31:01.684Z,5.33
2019-05-23T09:33:32.506Z,5.60
2019-05-23T09:36:03.583Z,5.33
2019-05-23T09:38:34.149Z,5.60
2019-05-23T09:41:04.701Z,5.40
2019-05-23T09:43:35.190Z,5.13
2019-05-23T09:46:05.850Z,5.77
2019-05-23T09:48:36.825Z,5.50
2019-05-23T09:51:09.062Z,5.03
2019-05-23T09:53:46.939Z,4.90
2019-05-23T09:56:16.625Z,5.50
2019-05-23T09:58:47.151Z,5.47
2019-05-23T10:01:19.298Z,5.90
2019-05-23T10:03:51.675Z,4.83
2019-05-23T10:06:22.257Z,4.50
2019-05-23T10:08:52.883Z,4.90
2019-05-23T10:11:23.373Z,4.87
2019-05-23T10:13:54.036Z,4.83
2019-05-23T10:16:24.615Z,5.80
2019-05-23T10:18:59.058Z,5.90
2019-05-23T10:21:30.110Z,5.27
2019-05-23T10:24:01.863Z,5.40
2019-05-23T10:26:32.468Z,4.80
2019-05-23T10:29:03.179Z,5.57
2019-05-23T10:31:33.777Z,5.63
2019-05-23T10:34:04.481Z,5.27
2019-05-23T10:36:35.076Z,5.23
2019-05-23T10:39:08.723Z,4.97
2019-05-23T10:41:39.457Z,4.70
2019-05-23T10:44:13.028Z,5.70
2019-05-23T10:46:43.751Z,5.37
2019-05-23T10:49:16.559Z,5.00
2019-05-23T10:51:47.033Z,5.20
2019-05-23T10:54:18.530Z,5.07
2019-05-23T10:56:49.144Z,5.20
2019-05-23T10:59:24.204Z,5.27
2019-05-23T11:01:55.532Z,5.13
2019-05-23T11:04:26.749Z,5.27
2019-05-23T11:06:58.979Z,4.73
2019-05-23T11:09:38.033Z,4.70
2019-05-23T11:12:05.947Z,4.93
2019-05-23T11:14:36.470Z,4.97
2019-05-23T11:17:08.277Z,5.47
2019-05-23T11:19:38.944Z,5.30
2019-05-23T11:22:09.690Z,5.30
2019-05-23T11:24:40.581Z,4.87
2019-05-23T11:27:11.373Z,4.83
2019-05-23T11:29:42.078Z,5.03
2019-05-23T11:32:13.146Z,5.30
2019-05-23T11:34:43.814Z,5.23
2019-05-23T11:37:14.385Z,4.97
2019-05-23T11:39:49.708Z,5.53
2019-05-23T11:42:17.065Z,4.90
2019-05-23T11:44:47.906Z,5.03
2019-05-23T11:47:18.592Z,4.83
2019-05-23T11:49:49.138Z,5.30
2019-05-23T11:52:19.893Z,4.80
2019-05-23T11:54:50.891Z,5.00
2019-05-23T11:57:21.895Z,5.10
2019-05-23T11:59:55.018Z,4.80
2019-05-23T12:02:31.214Z,4.43
2019-05-23T12:05:02.992Z,5.50
2019-05-23T12:07:34.737Z,4.73
2019-05-23T12:10:06.242Z,4.40
2019-05-23T12:12:37.072Z,4.17
2019-05-23T12:15:12.280Z,4.97
2019-05-23T12:17:44.040Z,4.80
2019-05-23T12:20:15.931Z,3.80
2019-05-23T12:22:47.166Z,4.40
2019-05-23T12:25:22.480Z,4.40
2019-05-23T12:27:50.161Z,4.20
2019-05-23T12:30:22.173Z,4.80
2019-05-23T12:32:52.703Z,4.23
2019-05-23T12:35:23.175Z,4.70
2019-05-23T12:37:53.652Z,5.30
2019-05-23T12:40:24.105Z,3.90
2019-05-23T12:42:54.680Z,4.80
2019-05-23T12:45:25.250Z,4.20
2019-05-23T12:48:00.938Z,4.90
2019-05-23T12:50:36.981Z,4.37
2019-05-23T12:53:09.374Z,4.30
2019-05-23T12:55:40.441Z,3.33
2019-05-23T12:58:11.072Z,4.53
2019-05-23T13:00:49.153Z,3.50
2019-05-23T13:03:19.906Z,4.70
2019-05-23T13:05:51.026Z,4.30
2019-05-23T13:08:21.562Z,4.37
2019-05-23T13:10:53.248Z,3.93
2019-05-23T13:13:23.966Z,4.20
2019-05-23T13:15:54.453Z,4.63
2019-05-23T13:18:25.039Z,4.20
2019-05-23T13:20:59.200Z,3.90
2019-05-23T13:23:28.866Z,3.87
2019-05-23T13:25:59.827Z,3.67
2019-05-23T13:28:30.305Z,4.70
2019-05-23T13:31:01.048Z,4.50
2019-05-23T13:33:32.193Z,4.50
2019-05-23T13:36:02.957Z,4.83
2019-05-23T13:38:33.895Z,4.43
2019-05-23T13:41:04.935Z,4.37
2019-05-23T13:43:35.777Z,4.93
2019-05-23T13:46:06.746Z,4.50
2019-05-23T13:48:37.324Z,4.70
2019-05-23T13:51:08.082Z,4.20
2019-05-23T13:53:38.919Z,4.27
2019-05-23T13:56:11.399Z,4.20
2019-05-23T13:58:45.440Z,4.43
2019-05-23T14:01:16.561Z,5.17
2019-05-23T14:03:47.278Z,3.97
2019-05-23T14:06:17.758Z,3.73
2019-05-23T14:08:49.554Z,3.60
2019-05-23T14:11:20.363Z,4.27
2019-05-23T14:13:59.561Z,3.40
2019-05-23T14:16:23.550Z,3.53
2019-05-23T14:18:54.507Z,3.60
2019-05-23T14:21:25.313Z,3.67
2019-05-23T14:23:56.289Z,2.90
2019-05-23T14:26:30.726Z,3.87
2019-05-23T14:29:04.682Z,4.00
2019-05-23T14:31:42.331Z,3.40
2019-05-23T14:34:15.340Z,3.67
2019-05-23T14:37:13.101Z,3.90
2019-05-23T14:39:49.439Z,3.67
2019-05-23T14:42:37.886Z,3.23
2019-05-23T14:45:29.652Z,4.17
2019-05-23T14:48:12.101Z,3.90
2019-05-23T14:50:53.729Z,3.30
2019-05-23T14:53:24.892Z,3.53
2019-05-23T14:55:55.378Z,4.50
2019-05-23T14:58:26.176Z,4.23
2019-05-23T15:00:57.645Z,3.63
2019-05-23T15:03:29.116Z,4.17
2019-05-23T15:05:59.694Z,3.50
2019-05-23T15:08:49.147Z,4.00
2019-05-23T15:11:02.956Z,3.30
2019-05-23T15:13:33.544Z,3.50
2019-05-23T15:16:05.209Z,3.70
2019-05-23T15:18:35.693Z,3.43
2019-05-23T15:21:06.197Z,3.63
2019-05-23T15:23:36.744Z,3.43
2019-05-23T15:26:21.483Z,3.57
2019-05-23T15:28:39.431Z,3.50
2019-05-23T15:31:10.640Z,3.30
2019-05-23T15:33:41.315Z,3.53
2019-05-23T15:36:12.696Z,3.30
2019-05-23T15:38:43.233Z,3.80
2019-05-23T15:41:13.865Z,3.03
2019-05-23T15:43:44.654Z,2.90
2019-05-23T15:46:15.321Z,3.37
2019-05-23T15:48:46.777Z,2.97
2019-05-23T15:51:22.249Z,3.33
2019-05-23T15:54:10.460Z,3.53
2019-05-23T15:56:52.418Z,3.35
2019-05-23T15:59:28.100Z,3.07
2019-05-23T16:02:26.951Z,3.25
2019-05-23T16:05:00.521Z,3.27
2019-05-23T16:07:32.347Z,4.42
2019-05-23T16:10:03.435Z,4.08
2019-05-23T16:12:34.100Z,3.77
2019-05-23T16:15:06.183Z,3.85
2019-05-23T16:17:36.671Z,4.40
2019-05-23T16:20:07.797Z,4.75
2019-05-23T16:22:38.703Z,5.20
2019-05-23T16:25:09.707Z,4.95
2019-05-23T16:27:40.503Z,4.47
2019-05-23T16:30:11.845Z,3.75
2019-05-23T16:32:46.407Z,4.08
2019-05-23T16:35:15.878Z,4.40
2019-05-23T16:37:46.339Z,3.60
2019-05-23T16:40:17.370Z,3.30
2019-05-23T16:42:47.946Z,4.23
2019-05-23T16:45:18.692Z,3.70
2019-05-23T16:47:49.659Z,3.60
2019-05-23T16:50:20.178Z,3.53
2019-05-23T16:52:50.881Z,3.60
2019-05-23T16:55:29.762Z,3.50
2019-05-23T16:58:05.079Z,3.50
2019-05-23T17:00:50.901Z,3.40
2019-05-23T17:03:57.727Z,3.60
2019-05-23T17:06:37.752Z,3.47
2019-05-23T17:09:31.733Z,3.77
2019-05-23T17:12:27.091Z,3.57
2019-05-23T17:15:28.605Z,3.60
2019-05-23T17:18:10.757Z,3.00
2019-05-23T17:20:52.806Z,2.90
2019-05-23T17:23:41.416Z,3.50
2019-05-23T17:26:31.541Z,3.20
2019-05-23T17:29:02.791Z,3.33
2019-05-23T17:31:36.754Z,3.30
2019-05-23T17:34:08.041Z,3.40
2019-05-23T17:36:38.855Z,2.80
2019-05-23T17:39:15.238Z,3.07
2019-05-23T17:41:45.961Z,3.30
2019-05-23T17:44:16.685Z,2.80
2019-05-23T17:46:47.159Z,2.80
2019-05-23T17:49:17.912Z,3.03
2019-05-23T17:51:48.897Z,2.87
2019-05-23T17:54:20.251Z,2.77
2019-05-23T17:56:50.997Z,3.00
2019-05-23T17:59:21.587Z,2.60
2019-05-23T18:01:52.638Z,2.87
2019-05-23T18:04:26.442Z,2.90
2019-05-23T18:06:58.515Z,2.70
2019-05-23T18:09:30.183Z,2.87
2019-05-23T18:12:01.197Z,2.37
2019-05-23T18:14:31.834Z,2.50
2019-05-23T18:17:03.104Z,2.33
2019-05-23T18:19:34.710Z,2.27
2019-05-23T18:22:07.725Z,2.20
2019-05-23T18:24:39.425Z,2.20
2019-05-23T18:27:10.980Z,2.27
2019-05-23T18:29:42.336Z,1.63
2019-05-23T18:32:17.941Z,1.80
2019-05-23T18:34:49.032Z,2.00
2019-05-23T18:37:20.278Z,1.40
2019-05-23T18:39:51.235Z,2.07
2019-05-23T18:42:24.205Z,1.53
2019-05-23T18:44:54.840Z,1.50
2019-05-23T18:47:32.247Z,1.70
2019-05-23T18:50:03.373Z,1.60
2019-05-23T18:52:34.074Z,1.53
2019-05-23T18:55:07.604Z,1.80
2019-05-23T18:57:39.077Z,1.37
2019-05-23T19:00:11.684Z,1.73
2019-05-23T19:02:43.826Z,1.47
2019-05-23T19:05:16.430Z,1.80
2019-05-23T19:07:47.774Z,1.50
2019-05-23T19:10:19.388Z,1.63
2019-05-23T19:13:04.807Z,1.50
2019-05-23T19:15:35.926Z,1.57
2019-05-23T19:18:13.059Z,1.50
2019-05-23T19:20:44.162Z,1.40
2019-05-23T19:23:44.565Z,1.30
2019-05-23T19:26:17.744Z,1.43
2019-05-23T19:29:02.092Z,1.60
2019-05-23T19:31:36.857Z,1.40
2019-05-23T19:34:13.118Z,1.67
2019-05-23T19:36:46.480Z,1.57
2019-05-23T19:39:35.982Z,1.40
2019-05-23T19:42:14.668Z,1.53
2019-05-23T19:44:55.015Z,1.50
2019-05-23T19:47:29.681Z,2.00
2019-05-23T19:50:09.658Z,1.80
2019-05-23T19:52:40.618Z,1.90
2019-05-23T19:55:18.235Z,1.80
2019-05-23T19:57:49.489Z,1.73
2019-05-23T20:00:22.925Z,1.60
2019-05-23T20:02:55.328Z,1.60
2019-05-23T20:05:36.260Z,1.70
2019-05-23T20:08:08.503Z,2.07
2019-05-23T20:11:03.730Z,1.90
2019-05-23T20:13:34.481Z,2.20
2019-05-23T20:16:05.840Z,2.10
2019-05-23T20:18:37.247Z,2.13
2019-05-23T20:21:08.865Z,2.50
2019-05-23T20:23:41.004Z,3.03
2019-05-23T20:26:13.080Z,2.17
2019-05-23T20:28:43.562Z,2.10
2019-05-23T20:31:14.804Z,2.30
2019-05-23T20:33:45.299Z,2.20
2019-05-23T20:36:17.199Z,2.37
2019-05-23T20:38:48.159Z,2.27
2019-05-23T20:41:18.956Z,2.30
2019-05-23T20:43:49.439Z,2.37
2019-05-23T20:46:21.269Z,2.37
2019-05-23T20:48:51.828Z,2.40
2019-05-23T20:51:22.374Z,2.60
2019-05-23T20:53:52.840Z,2.40
2019-05-23T20:56:23.271Z,2.80
2019-05-23T20:58:53.761Z,2.13
2019-05-23T21:01:28.850Z,2.20
2019-05-23T21:03:59.825Z,2.47
2019-05-23T21:06:30.681Z,2.33
2019-05-23T21:09:01.130Z,2.40
2019-05-23T21:11:31.737Z,2.87
2019-05-23T21:14:02.245Z,2.40
2019-05-23T21:16:32.723Z,2.60
2019-05-23T21:19:03.224Z,2.73
2019-05-23T21:21:33.715Z,2.40
2019-05-23T21:24:04.390Z,2.60
2019-05-23T21:26:35.259Z,2.77
2019-05-23T21:29:05.674Z,2.13
2019-05-23T21:31:36.101Z,2.60
2019-05-23T21:34:06.670Z,3.00
2019-05-23T21:36:37.438Z,2.80
2019-05-23T21:39:11.410Z,2.63
2019-05-23T21:41:41.904Z,2.93
2019-05-23T21:44:12.344Z,2.83
2019-05-23T21:46:42.891Z,3.00
2019-05-23T21:49:16.187Z,2.90
2019-05-23T21:51:46.809Z,2.67
2019-05-23T21:54:17.693Z,2.27
2019-05-23T21:56:52.496Z,2.40
2019-05-23T21:59:23.511Z,2.57
2019-05-23T22:02:04.588Z,2.40
2019-05-23T22:05:12.103Z,2.30
2019-05-23T22:07:43.368Z,2.37
2019-05-23T22:10:14.224Z,2.33
2019-05-23T22:12:45.643Z,2.50
2019-05-23T22:15:34.578Z,2.50
2019-05-23T22:18:05.508Z,2.30
2019-05-23T22:20:36.048Z,2.10
2019-05-23T22:23:06.531Z,2.20
2019-05-23T22:25:36.914Z,2.40
2019-05-23T22:28:07.439Z,2.30
2019-05-23T22:30:37.884Z,2.47
2019-05-23T22:33:09.641Z,2.63
2019-05-23T22:35:40.097Z,3.00
2019-05-23T22:38:10.768Z,3.03
2019-05-23T22:40:41.804Z,2.97
2019-05-23T22:43:20.686Z,2.40
2019-05-23T22:45:44.484Z,2.60
2019-05-23T22:48:15.002Z,2.40
2019-05-23T22:50:45.403Z,2.50
2019-05-23T22:53:15.844Z,2.80
2019-05-23T22:55:46.229Z,2.50
2019-05-23T22:58:16.799Z,2.90
2019-05-23T23:00:48.809Z,3.10
2019-05-23T23:03:19.286Z,2.87
2019-05-23T23:05:49.752Z,2.70
2019-05-23T23:08:21.051Z,2.40
2019-05-23T23:10:51.696Z,2.80
2019-05-23T23:13:37.733Z,2.80
2019-05-23T23:15:54.285Z,2.53
2019-05-23T23:18:25.488Z,2.80
2019-05-23T23:20:55.887Z,2.97
2019-05-23T23:23:26.308Z,2.60
2019-05-23T23:25:56.705Z,2.90
2019-05-23T23:28:27.166Z,3.10
2019-05-23T23:30:57.606Z,3.30
2019-05-23T23:33:28.115Z,3.33
2019-05-23T23:35:58.673Z,2.80
2019-05-23T23:38:29.114Z,2.90
2019-05-23T23:40:59.531Z,2.70
2019-05-23T23:43:30.061Z,2.70
2019-05-23T23:46:18.089Z,3.07
2019-05-23T23:49:06.039Z,3.07
2019-05-23T23:51:54.163Z,3.00
2019-05-23T23:54:42.351Z,2.77
2019-05-23T23:57:30.406Z,3.93
